createdAt,value
2022-10-17T00:01:06.902Z,1.00
2022-10-17T00:03:35.326Z,99.90
2022-10-17T00:06:06.683Z,99.90
2022-10-17T00:08:34.785Z,99.90
2022-10-17T00:11:05.609Z,99.90
2022-10-17T00:16:07.452Z,99.90
2022-10-17T00:18:35.551Z,1.00
2022-10-17T00:21:03.636Z,1.00
2022-10-17T00:23:31.715Z,1.00
2022-10-17T00:26:00.833Z,1.00
2022-10-17T00:28:30.339Z,1.00
2022-10-17T00:30:59.152Z,1.00
2022-10-17T00:33:27.450Z,1.00
2022-10-17T00:36:04.396Z,1.00
2022-10-17T00:38:32.534Z,1.00
2022-10-17T00:41:00.621Z,99.90
2022-10-17T00:43:30.415Z,99.90
2022-10-17T00:45:58.475Z,1.00
2022-10-17T00:48:26.537Z,99.90
2022-10-17T00:50:54.609Z,1.00
2022-10-17T00:53:22.724Z,1.00
2022-10-17T00:55:51.907Z,1.00
2022-10-17T00:58:20.014Z,99.90
2022-10-17T01:00:49.445Z,99.90
2022-10-17T01:03:17.630Z,1.00
2022-10-17T01:05:45.679Z,1.00
2022-10-17T01:08:13.934Z,1.00
2022-10-17T01:10:46.758Z,1.00
2022-10-17T01:13:17.283Z,1.00
2022-10-17T01:15:52.803Z,1.00
2022-10-17T01:18:27.522Z,1.00
2022-10-17T01:21:14.754Z,1.00
2022-10-17T01:24:04.244Z,1.00
2022-10-17T01:26:39.224Z,1.00
2022-10-17T01:29:22.589Z,1.00
2022-10-17T01:31:54.005Z,1.00
2022-10-17T01:34:23.500Z,1.00
2022-10-17T01:36:54.412Z,1.00
2022-10-17T01:39:26.956Z,99.90
2022-10-17T01:41:59.381Z,1.00
2022-10-17T01:44:30.495Z,1.00
2022-10-17T01:47:01.860Z,1.00
2022-10-17T01:49:30.499Z,1.00
2022-10-17T01:52:00.222Z,1.00
2022-10-17T01:54:31.481Z,1.00
2022-10-17T01:57:00.705Z,1.00
2022-10-17T01:59:31.257Z,1.00
2022-10-17T02:02:00.846Z,1.00
2022-10-17T02:04:28.904Z,1.00
2022-10-17T02:06:57.073Z,1.00
2022-10-17T02:09:25.921Z,1.00
2022-10-17T02:12:05.218Z,1.00
2022-10-17T02:14:37.608Z,91.00
2022-10-17T02:17:10.712Z,1.00
2022-10-17T02:19:47.333Z,1.00
2022-10-17T02:22:19.754Z,1.00
2022-10-17T02:24:50.771Z,1.00
2022-10-17T02:27:21.882Z,99.90
2022-10-17T02:29:51.137Z,1.00
2022-10-17T02:32:22.916Z,1.00
2022-10-17T02:34:52.050Z,99.90
2022-10-17T02:37:21.910Z,99.90
2022-10-17T02:39:50.000Z,92.50
2022-10-17T02:42:18.090Z,99.90
2022-10-17T02:44:46.404Z,1.00
2022-10-17T02:47:17.987Z,1.00
2022-10-17T02:49:48.557Z,1.00
2022-10-17T02:52:18.234Z,99.90
2022-10-17T02:54:49.028Z,99.90
2022-10-17T02:57:20.214Z,99.90
2022-10-17T02:59:48.274Z,99.90
2022-10-17T03:02:16.420Z,99.90
2022-10-17T03:04:46.274Z,99.90
2022-10-17T03:07:15.754Z,99.90
2022-10-17T03:09:43.834Z,99.90
2022-10-17T03:12:11.879Z,99.90
2022-10-17T03:14:39.967Z,99.90
2022-10-17T03:17:08.082Z,99.90
2022-10-17T03:19:36.200Z,99.90
2022-10-17T03:22:04.302Z,99.90
2022-10-17T03:24:33.877Z,86.60
2022-10-17T03:27:02.068Z,99.90
2022-10-17T03:29:30.134Z,1.00
2022-10-17T03:31:58.349Z,1.00
2022-10-17T03:34:26.468Z,99.90
2022-10-17T03:36:54.612Z,99.90
2022-10-17T03:39:22.731Z,13.20
2022-10-17T03:41:52.262Z,28.00
2022-10-17T03:44:20.392Z,1.00
2022-10-17T03:46:48.528Z,1.00
2022-10-17T03:49:16.579Z,1.00
2022-10-17T03:51:44.763Z,1.00
2022-10-17T03:54:12.853Z,1.00
2022-10-17T03:56:41.047Z,1.00
2022-10-17T03:59:12.459Z,1.00
2022-10-17T04:01:40.709Z,9.00
2022-10-17T04:04:08.893Z,99.90
2022-10-17T04:06:37.083Z,1.00
2022-10-17T04:09:05.343Z,1.00
2022-10-17T04:11:33.496Z,99.90
2022-10-17T04:14:01.686Z,62.10
2022-10-17T04:16:31.126Z,1.00
2022-10-17T04:18:59.969Z,1.00
2022-10-17T04:21:28.726Z,17.50
2022-10-17T04:23:56.827Z,1.00
2022-10-17T04:26:25.056Z,80.60
2022-10-17T04:28:53.159Z,34.00
2022-10-17T04:31:21.279Z,27.10
2022-10-17T04:33:51.168Z,99.90
2022-10-17T04:36:19.960Z,3.80
2022-10-17T04:38:48.108Z,99.90
2022-10-17T04:41:17.320Z,1.40
2022-10-17T04:43:48.584Z,1.00
2022-10-17T04:46:19.344Z,83.80
2022-10-17T04:48:47.529Z,99.90
2022-10-17T04:51:18.799Z,99.90
2022-10-17T04:53:48.994Z,99.90
2022-10-17T04:56:17.891Z,99.90
2022-10-17T04:58:46.264Z,1.00
2022-10-17T05:01:15.375Z,99.90
2022-10-17T05:03:43.664Z,99.90
2022-10-17T05:06:12.630Z,99.90
2022-10-17T05:08:42.139Z,99.90
2022-10-17T05:11:19.912Z,1.00
2022-10-17T05:13:51.249Z,99.90
2022-10-17T05:16:19.322Z,1.00
2022-10-17T05:18:52.840Z,1.00
2022-10-17T05:21:21.573Z,1.00
2022-10-17T05:23:51.250Z,99.90
2022-10-17T05:26:19.485Z,99.90
2022-10-17T05:28:47.669Z,99.90
2022-10-17T05:31:15.885Z,1.00
2022-10-17T05:33:43.966Z,1.00
2022-10-17T05:36:12.155Z,99.90
2022-10-17T05:38:40.357Z,1.00
2022-10-17T05:41:10.565Z,1.00
2022-10-17T05:43:38.670Z,1.00
2022-10-17T05:46:07.069Z,1.00
2022-10-17T05:48:35.176Z,1.00
2022-10-17T05:51:07.886Z,1.00
2022-10-17T05:53:38.261Z,99.90
2022-10-17T05:56:08.157Z,99.90
2022-10-17T05:58:49.647Z,99.90
2022-10-17T06:01:18.677Z,99.90
2022-10-17T06:03:46.774Z,99.90
2022-10-17T06:06:15.565Z,1.00
2022-10-17T06:08:43.711Z,99.90
2022-10-17T06:11:12.064Z,99.90
2022-10-17T06:13:41.647Z,87.50
2022-10-17T06:16:09.709Z,99.90
2022-10-17T06:18:37.871Z,99.40
2022-10-17T06:21:06.640Z,99.90
2022-10-17T06:23:34.722Z,36.30
2022-10-17T06:26:03.282Z,99.90
2022-10-17T06:28:31.606Z,1.00
2022-10-17T06:31:01.089Z,55.10
2022-10-17T06:33:29.160Z,29.90
2022-10-17T06:35:57.546Z,25.40
2022-10-17T06:38:25.629Z,20.60
2022-10-17T06:40:54.475Z,50.20
2022-10-17T06:43:27.690Z,99.90
2022-10-17T06:48:30.508Z,99.90
2022-10-17T06:51:00.789Z,99.90
2022-10-17T06:53:29.765Z,99.90
2022-10-17T06:56:01.436Z,99.90
2022-10-17T06:58:29.558Z,99.90
2022-10-17T07:01:01.134Z,99.90
2022-10-17T07:03:30.902Z,1.00
2022-10-17T07:05:59.373Z,1.00
2022-10-17T07:08:27.692Z,99.90
2022-10-17T07:10:56.066Z,1.00
2022-10-17T07:13:24.348Z,99.90
2022-10-17T07:15:52.611Z,99.90
2022-10-17T07:18:20.767Z,1.00
2022-10-17T07:20:55.552Z,1.00
2022-10-17T07:23:23.740Z,99.90
2022-10-17T07:25:51.781Z,99.90
2022-10-17T07:28:19.987Z,99.90
2022-10-17T07:30:51.972Z,1.00
2022-10-17T07:33:22.641Z,99.90
2022-10-17T07:35:52.644Z,99.90
2022-10-17T07:38:22.102Z,54.30
2022-10-17T07:40:55.986Z,93.70
2022-10-17T07:43:24.649Z,1.00
2022-10-17T07:45:52.717Z,1.00
2022-10-17T07:48:21.131Z,1.00
2022-10-17T07:50:49.320Z,99.90
2022-10-17T07:53:17.732Z,1.00
2022-10-17T07:55:48.205Z,1.00
2022-10-17T07:58:16.610Z,99.90
2022-10-17T08:00:48.513Z,99.90
2022-10-17T08:03:16.808Z,99.90
2022-10-17T08:05:44.995Z,99.90
2022-10-17T08:08:13.151Z,99.90
2022-10-17T08:10:41.235Z,99.90
2022-10-17T08:13:10.745Z,99.90
2022-10-17T08:15:38.989Z,97.50
2022-10-17T08:18:07.171Z,99.90
2022-10-17T08:20:35.289Z,16.20
2022-10-17T08:23:03.364Z,1.40
2022-10-17T08:25:31.498Z,52.90
2022-10-17T08:27:59.697Z,1.00
2022-10-17T08:30:30.739Z,1.00
2022-10-17T08:32:58.841Z,1.00
2022-10-17T08:35:26.905Z,1.00
2022-10-17T08:37:55.071Z,1.00
2022-10-17T08:40:25.273Z,1.00
2022-10-17T08:43:15.184Z,1.00
2022-10-17T08:45:47.142Z,1.00
2022-10-17T08:48:16.888Z,1.00
2022-10-17T08:50:46.518Z,1.00
2022-10-17T08:53:17.574Z,1.00
2022-10-17T08:55:47.006Z,1.00
2022-10-17T08:58:16.055Z,1.00
2022-10-17T09:00:49.320Z,1.00
2022-10-17T09:03:29.937Z,1.00
2022-10-17T09:06:12.618Z,1.00
2022-10-17T09:08:45.114Z,99.90
2022-10-17T09:11:18.196Z,99.90
2022-10-17T09:13:54.385Z,99.90
2022-10-17T09:16:32.657Z,99.90
2022-10-17T09:19:03.011Z,99.90
2022-10-17T09:21:38.406Z,99.90
2022-10-17T09:24:15.806Z,99.90
2022-10-17T09:26:45.846Z,99.90
2022-10-17T09:29:18.019Z,99.90
2022-10-17T09:31:50.604Z,99.90
2022-10-17T09:34:18.747Z,99.90
2022-10-17T09:36:46.903Z,99.90
2022-10-17T09:39:17.861Z,99.90
2022-10-17T09:41:48.590Z,99.90
2022-10-17T09:44:19.405Z,99.90
2022-10-17T09:47:10.259Z,99.90
2022-10-17T09:49:39.480Z,99.90
2022-10-17T09:52:10.570Z,99.90
2022-10-17T09:54:43.243Z,99.90
2022-10-17T09:57:12.266Z,99.90
2022-10-17T09:59:41.315Z,99.90
2022-10-17T10:02:18.628Z,99.90
2022-10-17T10:05:05.029Z,99.90
2022-10-17T10:07:34.852Z,99.90
2022-10-17T10:10:03.448Z,99.90
2022-10-17T10:12:32.853Z,99.90
2022-10-17T10:15:01.092Z,99.90
2022-10-17T10:17:38.316Z,99.90
2022-10-17T10:20:28.821Z,99.90
2022-10-17T10:23:12.470Z,99.90
2022-10-17T10:25:41.323Z,99.90
2022-10-17T10:28:11.857Z,99.90
2022-10-17T10:30:40.095Z,99.90
2022-10-17T10:33:12.160Z,99.90
2022-10-17T10:35:40.202Z,99.90
2022-10-17T10:38:11.139Z,99.90
2022-10-17T10:40:40.304Z,99.90
2022-10-17T10:43:08.880Z,99.90
2022-10-17T10:45:48.050Z,99.90
2022-10-17T10:48:22.488Z,99.90
2022-10-17T10:50:51.700Z,99.90
2022-10-17T10:53:35.550Z,99.90
2022-10-17T10:56:05.899Z,99.90
2022-10-17T10:58:42.123Z,99.90
2022-10-17T11:01:14.490Z,99.90
2022-10-17T11:06:14.984Z,99.90
2022-10-17T11:08:45.668Z,99.90
2022-10-17T11:11:18.348Z,99.90
2022-10-17T11:13:54.062Z,99.90
2022-10-17T11:16:28.139Z,99.90
2022-10-17T11:19:00.103Z,99.90
2022-10-17T11:21:32.828Z,99.90
2022-10-17T11:24:06.781Z,99.90
2022-10-17T11:26:44.220Z,99.90
2022-10-17T11:29:12.245Z,99.90
2022-10-17T11:31:42.283Z,99.90
2022-10-17T11:34:15.155Z,99.90
2022-10-17T11:36:44.000Z,99.90
2022-10-17T11:39:15.257Z,99.90
2022-10-17T11:41:46.362Z,99.90
2022-10-17T11:44:17.016Z,99.90
2022-10-17T11:46:45.205Z,99.90
2022-10-17T11:49:20.369Z,99.90
2022-10-17T11:52:00.666Z,99.90
2022-10-17T11:54:31.911Z,99.90
2022-10-17T11:57:09.160Z,99.90
2022-10-17T11:59:59.699Z,99.90
2022-10-17T12:02:32.990Z,99.90
2022-10-17T12:05:05.797Z,99.90
2022-10-17T12:07:39.245Z,99.90
2022-10-17T12:10:18.859Z,99.90
2022-10-17T12:12:48.258Z,99.90
2022-10-17T12:15:29.765Z,99.90
2022-10-17T12:18:00.950Z,99.90
2022-10-17T12:20:35.282Z,99.90
2022-10-17T12:23:06.348Z,99.90
2022-10-17T12:25:35.865Z,99.90
2022-10-17T12:28:15.955Z,99.90
2022-10-17T12:30:54.778Z,99.90
2022-10-17T12:33:24.285Z,99.90
2022-10-17T12:36:14.001Z,99.90
2022-10-17T12:38:42.063Z,99.90
2022-10-17T12:41:10.494Z,99.90
2022-10-17T12:43:56.647Z,99.90
2022-10-17T12:46:47.785Z,99.90
2022-10-17T12:49:40.656Z,99.90
2022-10-17T12:52:29.693Z,99.90
2022-10-17T12:55:17.782Z,99.90
2022-10-17T12:57:53.039Z,99.90
2022-10-17T13:00:24.429Z,99.90
2022-10-17T13:02:54.658Z,99.90
2022-10-17T13:05:27.766Z,99.90
2022-10-17T13:07:57.635Z,99.90
2022-10-17T13:13:05.854Z,99.90
2022-10-17T13:15:33.880Z,99.90
2022-10-17T13:18:02.529Z,99.90
2022-10-17T13:20:31.894Z,99.90
2022-10-17T13:23:01.572Z,99.90
2022-10-17T13:25:30.055Z,99.90
2022-10-17T13:28:14.128Z,99.90
2022-10-17T13:30:49.374Z,99.90
2022-10-17T13:33:29.057Z,99.90
2022-10-17T13:36:01.024Z,99.90
2022-10-17T13:38:35.681Z,99.90
2022-10-17T13:41:33.650Z,99.90
2022-10-17T13:43:54.078Z,99.90
2022-10-17T13:46:37.493Z,99.90
2022-10-17T13:49:12.043Z,99.90
2022-10-17T13:51:44.518Z,99.90
2022-10-17T13:54:21.265Z,99.90
2022-10-17T13:56:49.732Z,99.90
2022-10-17T13:59:22.753Z,99.90
2022-10-17T14:01:52.251Z,99.90
2022-10-17T14:04:20.704Z,99.90
2022-10-17T14:06:51.236Z,99.90
2022-10-17T14:09:23.102Z,99.90
2022-10-17T14:12:00.387Z,99.90
2022-10-17T14:14:29.119Z,99.90
2022-10-17T14:16:58.494Z,99.90
2022-10-17T14:19:27.663Z,99.90
2022-10-17T14:21:57.106Z,99.90
2022-10-17T14:24:31.589Z,99.90
2022-10-17T14:27:00.857Z,99.90
2022-10-17T14:29:29.884Z,99.90
2022-10-17T14:31:59.746Z,99.90
2022-10-17T14:34:30.540Z,99.90
2022-10-17T14:36:58.632Z,99.90
2022-10-17T14:39:26.711Z,99.90
2022-10-17T14:41:58.660Z,99.50
2022-10-17T14:44:30.249Z,99.20
2022-10-17T14:47:05.975Z,99.90
2022-10-17T14:49:41.901Z,99.30
2022-10-17T14:52:28.393Z,98.60
2022-10-17T14:54:56.646Z,98.90
2022-10-17T14:57:28.187Z,99.60
2022-10-17T14:59:56.543Z,99.10
2022-10-17T15:02:25.221Z,99.40
2022-10-17T15:04:53.318Z,98.50
2022-10-17T15:07:22.256Z,98.20
2022-10-17T15:09:51.394Z,99.20
2022-10-17T15:12:20.455Z,99.70
2022-10-17T15:14:50.743Z,99.80
2022-10-17T15:17:20.924Z,99.90
2022-10-17T15:19:50.733Z,99.90
2022-10-17T15:22:19.289Z,99.90
2022-10-17T15:24:47.375Z,99.90
2022-10-17T15:27:16.595Z,99.90
2022-10-17T15:29:44.697Z,99.90
2022-10-17T15:32:14.128Z,99.90
2022-10-17T15:34:42.196Z,99.90
2022-10-17T15:37:17.697Z,99.90
2022-10-17T15:39:48.127Z,99.90
2022-10-17T15:42:16.252Z,99.90
2022-10-17T15:44:44.844Z,99.90
2022-10-17T15:47:16.983Z,99.90
2022-10-17T15:49:45.078Z,99.90
2022-10-17T15:52:13.197Z,99.90
2022-10-17T15:54:56.465Z,99.90
2022-10-17T15:57:28.100Z,99.90
2022-10-17T15:59:56.668Z,99.90
2022-10-17T16:02:26.138Z,99.90
2022-10-17T16:04:54.294Z,99.90
2022-10-17T16:07:22.605Z,99.90
2022-10-17T16:09:50.692Z,99.90
2022-10-17T16:12:19.457Z,99.90
2022-10-17T16:14:47.554Z,99.90
2022-10-17T16:17:16.118Z,99.90
2022-10-17T16:19:46.060Z,99.90
2022-10-17T16:22:21.073Z,99.90
2022-10-17T16:24:49.217Z,99.90
2022-10-17T16:27:17.353Z,99.90
2022-10-17T16:29:45.453Z,99.90
2022-10-17T16:32:13.650Z,99.90
2022-10-17T16:34:41.803Z,99.90
2022-10-17T16:37:11.397Z,99.90
2022-10-17T16:39:39.463Z,99.90
2022-10-17T16:42:07.600Z,99.90
2022-10-17T16:44:35.704Z,99.90
2022-10-17T16:47:03.842Z,99.90
2022-10-17T16:49:31.952Z,99.90
2022-10-17T16:52:00.098Z,99.90
2022-10-17T16:54:30.031Z,99.90
2022-10-17T16:56:58.474Z,99.90
2022-10-17T16:59:27.163Z,99.90
2022-10-17T17:01:55.354Z,99.90
2022-10-17T17:04:23.545Z,99.90
2022-10-17T17:06:51.645Z,99.90
2022-10-17T17:09:19.786Z,1.00
2022-10-17T17:11:49.440Z,1.00
2022-10-17T17:14:17.520Z,1.00
2022-10-17T17:16:45.696Z,1.00
2022-10-17T17:19:15.234Z,1.00
2022-10-17T17:21:47.629Z,1.00
2022-10-17T17:24:17.223Z,1.00
2022-10-17T17:26:46.110Z,1.00
2022-10-17T17:29:15.518Z,1.00
2022-10-17T17:31:43.700Z,1.00
2022-10-17T17:34:14.269Z,1.00
2022-10-17T17:36:45.437Z,1.00
2022-10-17T17:39:14.604Z,1.00
2022-10-17T17:41:43.040Z,1.00
2022-10-17T17:44:15.578Z,1.00
2022-10-17T17:46:46.457Z,1.00
2022-10-17T17:49:14.499Z,1.00
2022-10-17T17:51:46.377Z,1.00
2022-10-17T17:54:14.807Z,1.00
2022-10-17T17:56:42.894Z,1.00
2022-10-17T17:59:12.309Z,1.00
2022-10-17T18:01:40.546Z,1.00
2022-10-17T18:04:10.160Z,1.00
2022-10-17T18:06:38.859Z,1.00
2022-10-17T18:09:07.208Z,1.00
2022-10-17T18:11:35.390Z,1.00
2022-10-17T18:14:04.194Z,1.00
2022-10-17T18:16:32.967Z,1.00
2022-10-17T18:19:04.297Z,1.00
2022-10-17T18:21:36.398Z,1.00
2022-10-17T18:24:05.610Z,1.00
2022-10-17T18:26:33.794Z,1.00
2022-10-17T18:29:01.867Z,1.00
2022-10-17T18:31:35.643Z,1.00
2022-10-17T18:34:04.627Z,1.00
2022-10-17T18:36:33.437Z,1.00
2022-10-17T18:39:02.979Z,1.00
2022-10-17T18:41:31.089Z,1.00
2022-10-17T18:43:59.229Z,1.00
2022-10-17T18:46:28.556Z,1.00
2022-10-17T18:48:56.767Z,1.00
2022-10-17T18:51:25.562Z,1.00
2022-10-17T18:53:54.733Z,1.00
2022-10-17T18:56:24.855Z,1.00
2022-10-17T18:58:53.114Z,1.00
2022-10-17T19:01:22.477Z,1.00
2022-10-17T19:03:51.266Z,1.00
2022-10-17T19:06:20.664Z,1.00
2022-10-17T19:08:48.913Z,23.50
2022-10-17T19:11:18.165Z,28.50
2022-10-17T19:13:48.083Z,38.40
2022-10-17T19:16:17.145Z,23.70
2022-10-17T19:18:45.252Z,39.90
2022-10-17T19:21:14.562Z,73.50
2022-10-17T19:23:44.145Z,86.10
2022-10-17T19:26:13.793Z,56.10
2022-10-17T19:28:42.919Z,55.70
2022-10-17T19:31:16.843Z,44.40
2022-10-17T19:33:46.205Z,53.50
2022-10-17T19:36:14.682Z,96.70
2022-10-17T19:38:42.797Z,92.60
2022-10-17T19:41:12.341Z,97.80
2022-10-17T19:43:41.043Z,62.60
2022-10-17T19:46:10.514Z,46.80
2022-10-17T19:48:40.142Z,70.10
2022-10-17T19:51:09.006Z,81.00
2022-10-17T19:53:37.511Z,71.20
2022-10-17T19:56:06.277Z,99.30
2022-10-17T19:58:36.350Z,38.80
2022-10-17T20:01:06.578Z,34.00
2022-10-17T20:03:34.704Z,60.80
2022-10-17T20:06:04.816Z,86.30
2022-10-17T20:08:32.935Z,87.00
2022-10-17T20:11:04.438Z,84.50
2022-10-17T20:13:32.534Z,65.10
2022-10-17T20:16:00.950Z,99.90
2022-10-17T20:18:29.288Z,70.90
2022-10-17T20:20:57.484Z,92.70
2022-10-17T20:23:27.046Z,99.90
2022-10-17T20:26:13.251Z,99.90
2022-10-17T20:28:48.157Z,99.90
2022-10-17T20:31:16.668Z,99.90
2022-10-17T20:33:44.738Z,99.90
2022-10-17T20:36:13.849Z,99.90
2022-10-17T20:38:43.282Z,99.90
2022-10-17T20:41:11.552Z,99.90
2022-10-17T20:43:39.673Z,99.90
2022-10-17T20:46:22.905Z,99.90
2022-10-17T20:48:52.720Z,99.90
2022-10-17T20:51:20.983Z,99.90
2022-10-17T20:53:50.527Z,99.90
2022-10-17T20:56:20.191Z,99.90
2022-10-17T20:58:52.139Z,99.90
2022-10-17T21:01:20.349Z,99.90
2022-10-17T21:03:48.553Z,99.90
2022-10-17T21:06:17.116Z,99.90
2022-10-17T21:08:45.579Z,99.90
2022-10-17T21:11:15.723Z,99.90
2022-10-17T21:13:43.786Z,99.90
2022-10-17T21:16:13.033Z,99.90
2022-10-17T21:18:41.184Z,99.90
2022-10-17T21:21:10.767Z,99.90
2022-10-17T21:23:39.616Z,99.90
2022-10-17T21:26:10.032Z,99.90
2022-10-17T21:28:39.624Z,99.90
2022-10-17T21:31:12.432Z,99.90
2022-10-17T21:33:40.628Z,99.90
2022-10-17T21:36:09.558Z,99.90
2022-10-17T21:38:38.305Z,99.90
2022-10-17T21:41:07.011Z,99.90
2022-10-17T21:43:35.187Z,99.90
2022-10-17T21:46:05.372Z,99.90
2022-10-17T21:48:33.941Z,99.90
2022-10-17T21:51:02.996Z,99.90
2022-10-17T21:53:31.067Z,99.90
2022-10-17T21:56:00.693Z,99.90
2022-10-17T21:58:28.890Z,99.90
2022-10-17T22:01:06.171Z,99.90
2022-10-17T22:03:35.305Z,99.90
2022-10-17T22:06:13.042Z,99.90
2022-10-17T22:08:51.606Z,99.90
2022-10-17T22:11:20.935Z,99.90
2022-10-17T22:13:49.291Z,99.90
2022-10-17T22:16:18.824Z,99.90
2022-10-17T22:18:46.922Z,99.90
2022-10-17T22:21:16.100Z,99.90
2022-10-17T22:23:45.613Z,99.90
2022-10-17T22:26:13.990Z,99.90
2022-10-17T22:28:42.321Z,99.90
2022-10-17T22:31:10.615Z,99.90
2022-10-17T22:33:40.340Z,99.90
2022-10-17T22:36:09.077Z,99.90
2022-10-17T22:38:37.218Z,99.90
2022-10-17T22:41:05.419Z,99.90
2022-10-17T22:43:33.491Z,99.90
2022-10-17T22:46:02.320Z,99.90
2022-10-17T22:48:30.578Z,99.90
2022-10-17T22:51:00.411Z,99.90
2022-10-17T22:53:29.821Z,99.90
2022-10-17T22:55:58.998Z,99.90
2022-10-17T22:58:27.083Z,99.90
2022-10-17T23:00:55.253Z,99.90
2022-10-17T23:03:23.426Z,99.90
2022-10-17T23:05:51.588Z,1.00
2022-10-17T23:08:21.226Z,1.00
2022-10-17T23:10:49.474Z,1.00
2022-10-17T23:13:18.782Z,1.00
2022-10-17T23:15:46.960Z,1.00
2022-10-17T23:18:15.180Z,1.00
2022-10-17T23:20:43.336Z,1.00
2022-10-17T23:23:11.476Z,1.00
2022-10-17T23:25:41.073Z,1.00
2022-10-17T23:28:09.444Z,1.00
2022-10-17T23:30:37.622Z,1.00
2022-10-17T23:33:05.788Z,1.00
2022-10-17T23:35:33.937Z,1.00
2022-10-17T23:38:02.026Z,1.00
2022-10-17T23:40:30.911Z,1.00
2022-10-17T23:43:00.345Z,1.00
2022-10-17T23:45:28.508Z,1.00
2022-10-17T23:47:56.575Z,1.00
2022-10-17T23:50:24.738Z,29.50
2022-10-17T23:52:52.868Z,5.50
2022-10-17T23:55:20.927Z,1.00
2022-10-17T23:57:49.061Z,1.00
